Time;durP1;ratioP1;P1;durP2;ratioP2;P2;SDS_P1;SDS_P2;PMS_P1;PMS_P2;Temp;Humidity;BMP_temperature;BMP_pressure;BME280_temperature;BME280_humidity;BME280_pressure;Samples;Min_cycle;Max_cycle;Signal;HPM_P1;HPM_P2
2022/10/08 00:00:56;;;;;;;5.63;1.63;;;15.30;99.90;;;;;;5025661;28;25116;-68
2022/10/08 00:03:23;;;;;;;6.97;1.58;;;15.40;99.90;;;;;;5023550;28;25056;-69
2022/10/08 00:06:00;;;;;;;6.60;1.45;;;15.40;99.90;;;;;;5021135;28;25078;-69
2022/10/08 00:08:28;;;;;;;9.32;1.75;;;15.40;99.90;;;;;;5032934;28;25153;-70
2022/10/08 00:11:02;;;;;;;6.65;1.52;;;15.30;99.90;;;;;;5026144;28;25068;-69
2022/10/08 00:13:39;;;;;;;4.13;1.40;;;15.40;99.90;;;;;;5026644;28;25069;-71
2022/10/08 00:16:26;;;;;;;4.13;1.38;;;15.40;99.90;;;;;;5022668;28;25143;-69
2022/10/08 00:18:54;;;;;;;9.18;1.40;;;15.40;99.90;;;;;;5030572;28;25051;-69
2022/10/08 00:21:26;;;;;;;3.15;1.40;;;15.30;99.90;;;;;;5026313;28;25121;-69
2022/10/08 00:23:53;;;;;;;5.28;1.30;;;15.40;99.90;;;;;;5025538;28;25058;-68
2022/10/08 00:26:22;;;;;;;3.05;1.27;;;15.40;99.90;;;;;;5025455;28;25096;-69
2022/10/08 00:28:49;;;;;;;4.40;1.30;;;15.40;99.90;;;;;;5025851;28;25132;-69
2022/10/08 00:31:18;;;;;;;6.28;1.88;;;15.40;99.90;;;;;;5004069;28;25124;-71
2022/10/08 00:33:47;;;;;;;7.90;1.33;;;15.40;99.90;;;;;;5006068;28;25124;-69
2022/10/08 00:36:13;;;;;;;10.52;1.55;;;15.50;99.90;;;;;;5021589;28;25139;-67
2022/10/08 00:38:39;;;;;;;9.93;1.75;;;15.50;99.90;;;;;;5024515;28;25135;-69
2022/10/08 00:41:07;;;;;;;3.40;1.30;;;15.50;99.90;;;;;;5018658;28;25079;-70
2022/10/08 00:43:54;;;;;;;5.10;1.38;;;15.60;99.90;;;;;;5028162;28;25055;-70
2022/10/08 00:46:28;;;;;;;3.65;1.17;;;15.60;99.90;;;;;;5007177;28;25065;-70
2022/10/08 00:49:20;;;;;;;6.82;1.45;;;15.70;99.90;;;;;;5022643;28;25131;-69
2022/10/08 00:51:51;;;;;;;1.73;1.05;;;15.60;99.90;;;;;;5028192;28;25184;-69
2022/10/08 00:54:18;;;;;;;4.70;1.65;;;15.60;99.90;;;;;;5023726;28;25144;-70
2022/10/08 00:56:48;;;;;;;3.70;1.40;;;15.60;99.90;;;;;;5025622;28;25087;-70
2022/10/08 00:59:14;;;;;;;4.88;1.42;;;15.60;99.90;;;;;;5021419;28;25083;-69
2022/10/08 01:01:42;;;;;;;3.75;1.67;;;15.70;99.90;;;;;;5024538;28;25069;-70
2022/10/08 01:04:08;;;;;;;6.50;1.23;;;15.70;99.90;;;;;;5026188;28;25097;-69
2022/10/08 01:06:56;;;;;;;3.63;1.40;;;15.60;99.90;;;;;;5028167;28;25180;-70
2022/10/08 01:09:51;;;;;;;4.35;1.48;;;15.70;99.90;;;;;;5023278;28;25059;-70
2022/10/08 01:12:45;;;;;;;5.60;1.35;;;15.70;99.90;;;;;;5021631;28;25054;-70
2022/10/08 01:15:36;;;;;;;3.03;1.45;;;15.70;99.90;;;;;;5023223;28;25044;-70
2022/10/08 01:18:10;;;;;;;6.95;1.70;;;15.70;99.90;;;;;;5021190;28;25146;-69
2022/10/08 01:21:16;;;;;;;3.33;1.42;;;15.80;99.90;;;;;;5020847;28;25070;-69
2022/10/08 01:24:09;;;;;;;4.30;1.50;;;15.70;99.90;;;;;;5026189;28;25118;-69
2022/10/08 01:26:54;;;;;;;4.15;1.35;;;15.70;99.90;;;;;;5027926;28;25185;-69
2022/10/08 01:29:41;;;;;;;3.83;1.33;;;15.60;99.90;;;;;;5023084;28;25076;-69
2022/10/08 01:32:13;;;;;;;4.15;1.10;;;15.70;99.90;;;;;;5006874;28;25075;-69
2022/10/08 01:34:58;;;;;;;4.68;1.45;;;15.80;99.90;;;;;;5026877;28;25108;-70
2022/10/08 01:37:30;;;;;;;7.15;1.40;;;15.70;99.90;;;;;;5023165;28;25131;-70
2022/10/08 01:39:59;;;;;;;4.50;1.30;;;15.80;99.90;;;;;;5021944;28;25068;-70
2022/10/08 01:42:26;;;;;;;5.90;1.30;;;15.80;99.90;;;;;;5026532;28;25045;-69
2022/10/08 01:45:00;;;;;;;3.72;1.20;;;15.90;99.90;;;;;;5018111;28;25049;-69
2022/10/08 01:47:27;;;;;;;6.07;1.65;;;15.80;99.90;;;;;;5025478;28;25097;-70
2022/10/08 01:50:11;;;;;;;2.65;1.23;;;15.80;99.90;;;;;;5025628;28;25061;-68
2022/10/08 01:52:43;;;;;;;6.20;1.60;;;15.70;99.90;;;;;;5030484;28;25088;-70
2022/10/08 01:55:15;;;;;;;2.58;1.27;;;15.60;99.90;;;;;;5027465;28;25052;-68
2022/10/08 01:57:43;;;;;;;5.32;1.50;;;15.60;99.90;;;;;;5032852;28;25136;-70
2022/10/08 02:00:12;;;;;;;5.82;1.52;;;15.60;99.90;;;;;;5025462;28;25070;-70
2022/10/08 02:02:38;;;;;;;5.10;1.50;;;15.50;99.90;;;;;;5024156;28;25067;-70
2022/10/08 02:05:05;;;;;;;6.78;1.30;;;15.40;99.90;;;;;;5020240;28;25088;-69
2022/10/08 02:07:34;;;;;;;7.18;1.67;;;15.40;99.90;;;;;;5006092;28;25077;-68
2022/10/08 02:10:11;;;;;;;2.53;1.40;;;15.50;99.90;;;;;;5025671;28;25122;-70
2022/10/08 02:12:39;;;;;;;8.57;1.50;;;15.50;99.90;;;;;;5024124;28;25061;-69
2022/10/08 02:15:17;;;;;;;2.78;1.58;;;15.40;99.90;;;;;;5025640;28;25047;-70
2022/10/08 02:18:35;;;;;;;7.03;2.15;;;15.40;99.90;;;;;;5026793;28;25102;-69
2022/10/08 02:21:07;;;;;;;6.90;1.88;;;15.40;99.90;;;;;;4956316;28;25165;-70
2022/10/08 02:23:49;;;;;;;4.55;1.48;;;15.30;99.90;;;;;;5023200;28;25090;-70
2022/10/08 02:26:21;;;;;;;6.10;1.35;;;15.30;99.90;;;;;;5031610;28;25111;-71
2022/10/08 02:29:12;;;;;;;10.52;1.67;;;15.20;99.90;;;;;;5024301;28;25080;-69
2022/10/08 02:31:47;;;;;;;6.70;1.60;;;15.20;99.90;;;;;;5017011;28;25146;-69
2022/10/08 02:34:18;;;;;;;7.60;1.75;;;15.30;99.90;;;;;;5024424;28;25055;-69
2022/10/08 02:36:48;;;;;;;7.93;2.93;;;15.30;99.90;;;;;;5023590;28;25090;-69
2022/10/08 02:39:15;;;;;;;7.15;2.03;;;15.30;99.90;;;;;;5020336;28;25072;-70
2022/10/08 02:41:45;;;;;;;5.38;1.70;;;15.30;99.90;;;;;;5023401;28;25064;-70
2022/10/08 02:44:20;;;;;;;9.98;1.80;;;15.30;99.90;;;;;;5025567;28;25094;-70
2022/10/08 02:46:49;;;;;;;6.38;1.75;;;15.20;99.90;;;;;;5025496;28;25152;-70
2022/10/08 02:49:26;;;;;;;9.55;2.53;;;15.30;99.90;;;;;;5025705;28;25136;-70
2022/10/08 02:51:53;;;;;;;9.70;2.78;;;15.20;99.90;;;;;;5020267;28;25072;-70
2022/10/08 02:54:21;;;;;;;8.70;2.45;;;15.20;99.90;;;;;;5025361;28;25046;-70
2022/10/08 02:56:52;;;;;;;9.13;2.67;;;15.30;99.90;;;;;;5025792;28;25082;-70
2022/10/08 02:59:19;;;;;;;8.93;2.78;;;15.20;99.90;;;;;;5017126;28;25087;-68
2022/10/08 03:01:54;;;;;;;7.25;2.92;;;15.20;99.90;;;;;;5023793;28;25080;-70
2022/10/08 03:04:26;;;;;;;9.13;3.05;;;15.20;99.90;;;;;;5025346;28;25137;-70
2022/10/08 03:06:52;;;;;;;13.43;3.83;;;15.20;99.90;;;;;;5024779;28;25053;-70
2022/10/08 03:09:20;;;;;;;8.20;3.22;;;15.20;99.90;;;;;;5020716;28;25094;-69
2022/10/08 03:11:47;;;;;;;11.07;3.28;;;15.10;99.90;;;;;;5025487;28;25081;-70
2022/10/08 03:14:15;;;;;;;9.95;3.40;;;15.10;99.90;;;;;;5024810;28;25129;-69
2022/10/08 03:16:42;;;;;;;11.60;3.60;;;15.10;99.90;;;;;;5027345;28;25113;-69
2022/10/08 03:19:11;;;;;;;6.35;3.22;;;15.00;99.90;;;;;;5023565;28;25144;-69
2022/10/08 03:21:38;;;;;;;7.60;3.30;;;15.10;99.90;;;;;;5028320;28;25088;-70
2022/10/08 03:24:06;;;;;;;8.27;3.42;;;15.10;99.90;;;;;;5024112;28;25079;-70
2022/10/08 03:26:31;;;;;;;13.70;3.50;;;15.00;99.90;;;;;;5029299;28;25109;-69
2022/10/08 03:28:57;;;;;;;9.68;3.40;;;15.00;99.90;;;;;;5024255;28;25102;-69
2022/10/08 03:31:22;;;;;;;6.82;3.30;;;15.10;99.90;;;;;;5026619;28;25093;-70
2022/10/08 03:33:49;;;;;;;13.35;4.00;;;15.00;99.90;;;;;;5026409;28;25050;-69
2022/10/08 03:36:15;;;;;;;7.45;3.70;;;15.00;99.90;;;;;;5021180;28;25061;-69
2022/10/08 03:38:40;;;;;;;12.88;3.88;;;15.00;99.90;;;;;;5025533;28;25064;-70
2022/10/08 03:41:08;;;;;;;13.88;3.78;;;14.90;99.90;;;;;;5018200;28;25102;-69
2022/10/08 03:43:33;;;;;;;10.75;4.28;;;14.90;99.90;;;;;;5018176;28;25077;-69
2022/10/08 03:45:59;;;;;;;11.48;3.55;;;15.00;99.90;;;;;;5025689;28;25078;-69
2022/10/08 03:48:25;;;;;;;8.77;3.45;;;15.00;99.90;;;;;;5012416;28;25084;-69
2022/10/08 03:51:02;;;;;;;11.50;3.50;;;15.00;99.90;;;;;;5017005;28;25099;-69
2022/10/08 03:53:30;;;;;;;10.45;3.25;;;14.90;99.90;;;;;;5010998;28;25083;-70
2022/10/08 03:56:02;;;;;;;6.72;3.03;;;15.00;99.90;;;;;;5012043;28;25060;-70
2022/10/08 03:58:28;;;;;;;10.50;3.03;;;14.90;99.90;;;;;;5010362;28;25127;-70
2022/10/08 04:01:00;;;;;;;11.00;2.75;;;14.90;99.90;;;;;;5017502;28;25125;-70
2022/10/08 04:03:27;;;;;;;10.38;3.58;;;14.90;99.90;;;;;;5011949;28;25082;-68
2022/10/08 04:05:53;;;;;;;14.15;2.50;;;14.90;99.90;;;;;;5013663;28;25088;-69
2022/10/08 04:08:19;;;;;;;10.10;2.30;;;14.80;99.90;;;;;;5011680;28;25109;-70
2022/10/08 04:10:44;;;;;;;11.10;3.03;;;14.80;99.90;;;;;;5018578;28;25470;-70
2022/10/08 04:13:10;;;;;;;8.82;2.60;;;14.80;99.90;;;;;;5011249;28;25076;-69
2022/10/08 04:15:36;;;;;;;15.38;2.53;;;14.80;99.90;;;;;;5022686;28;25098;-70
2022/10/08 04:18:01;;;;;;;6.93;2.10;;;14.70;99.90;;;;;;5026122;28;25049;-69
2022/10/08 04:20:27;;;;;;;15.20;2.33;;;14.70;99.90;;;;;;5021214;28;25090;-68
2022/10/08 04:22:52;;;;;;;7.85;2.90;;;14.60;99.90;;;;;;5024726;28;25153;-69
2022/10/08 04:25:18;;;;;;;5.50;2.15;;;14.50;99.90;;;;;;5020136;28;25208;-70
2022/10/08 04:27:47;;;;;;;10.20;2.17;;;14.50;99.90;;;;;;5024023;28;25163;-70
2022/10/08 04:30:14;;;;;;;10.80;2.65;;;14.40;99.90;;;;;;5022493;28;25069;-70
2022/10/08 04:32:39;;;;;;;4.95;1.67;;;14.30;99.90;;;;;;5027405;28;25053;-71
2022/10/08 04:35:05;;;;;;;11.82;2.22;;;14.30;99.90;;;;;;5024581;28;25054;-70
2022/10/08 04:37:31;;;;;;;4.93;2.58;;;14.30;99.90;;;;;;5022269;28;25067;-70
2022/10/08 04:39:56;;;;;;;12.52;2.35;;;14.10;99.90;;;;;;5006031;28;25047;-68
2022/10/08 04:42:22;;;;;;;11.23;2.30;;;14.10;99.90;;;;;;5024210;28;25062;-70
2022/10/08 04:44:48;;;;;;;9.57;2.15;;;14.10;99.90;;;;;;5021703;28;25072;-69
2022/10/08 04:47:13;;;;;;;6.13;2.20;;;14.10;99.90;;;;;;5020121;28;25140;-69
2022/10/08 04:49:39;;;;;;;7.80;1.77;;;14.00;99.90;;;;;;5024977;28;25052;-69
2022/10/08 04:52:04;;;;;;;9.23;1.83;;;14.00;99.90;;;;;;5026291;28;25069;-69
2022/10/08 04:54:30;;;;;;;5.75;1.80;;;14.00;99.90;;;;;;5026671;28;25062;-68
2022/10/08 04:56:55;;;;;;;8.13;1.70;;;14.00;99.90;;;;;;5027312;28;25082;-69
2022/10/08 04:59:21;;;;;;;6.90;1.52;;;14.00;99.90;;;;;;5028042;28;25129;-70
2022/10/08 05:01:46;;;;;;;8.52;1.83;;;14.00;99.90;;;;;;5027340;28;25153;-69
2022/10/08 05:04:12;;;;;;;9.23;2.33;;;13.90;99.90;;;;;;5027936;28;25144;-70
2022/10/08 05:06:37;;;;;;;4.85;1.55;;;13.90;99.90;;;;;;5023381;28;25152;-69
2022/10/08 05:09:03;;;;;;;9.63;1.85;;;13.90;99.90;;;;;;5023299;28;25079;-69
2022/10/08 05:11:29;;;;;;;3.97;1.45;;;13.70;99.90;;;;;;5021697;28;25173;-70
2022/10/08 05:13:57;;;;;;;10.35;1.55;;;13.60;99.90;;;;;;5022741;28;25162;-69
2022/10/08 05:16:23;;;;;;;6.72;2.13;;;13.60;99.90;;;;;;5019931;28;25094;-70
2022/10/08 05:18:50;;;;;;;5.13;2.58;;;13.40;99.90;;;;;;5021206;28;25165;-70
2022/10/08 05:21:18;;;;;;;7.00;1.60;;;13.40;99.90;;;;;;5018390;28;25076;-71
2022/10/08 05:23:45;;;;;;;16.00;1.58;;;13.50;99.90;;;;;;5024186;28;25081;-71
2022/10/08 05:26:14;;;;;;;12.13;2.63;;;13.40;99.90;;;;;;5025497;28;25140;-70
2022/10/08 05:28:41;;;;;;;5.55;1.50;;;13.40;99.90;;;;;;5022754;28;25055;-70
2022/10/08 05:31:06;;;;;;;7.05;1.70;;;13.50;99.90;;;;;;5017922;28;25059;-70
2022/10/08 05:33:34;;;;;;;9.75;1.77;;;13.40;99.90;;;;;;5023113;28;25085;-69
2022/10/08 05:36:09;;;;;;;12.43;1.77;;;13.50;99.90;;;;;;5017740;28;25075;-70
2022/10/08 05:38:34;;;;;;;2.63;1.17;;;13.50;99.90;;;;;;5021650;28;25066;-69
2022/10/08 05:41:16;;;;;;;7.97;1.70;;;13.40;99.90;;;;;;5017250;28;25058;-70
2022/10/08 05:43:42;;;;;;;6.25;1.65;;;13.40;99.90;;;;;;5016739;28;25066;-70
2022/10/08 05:46:08;;;;;;;10.32;2.15;;;13.30;99.90;;;;;;5018796;28;25047;-69
2022/10/08 05:48:34;;;;;;;6.47;1.50;;;13.20;99.90;;;;;;5025247;28;25143;-70
2022/10/08 05:51:05;;;;;;;8.05;1.52;;;13.20;99.90;;;;;;5019567;28;25141;-71
2022/10/08 05:53:32;;;;;;;9.82;1.42;;;13.10;99.90;;;;;;5023317;28;25053;-70
2022/10/08 05:56:00;;;;;;;7.97;1.40;;;13.10;99.90;;;;;;5022418;28;25214;-71
2022/10/08 05:58:25;;;;;;;6.97;1.95;;;13.10;99.90;;;;;;5025995;28;25087;-69
2022/10/08 06:00:58;;;;;;;10.45;1.50;;;13.20;99.90;;;;;;5026750;28;25065;-70
2022/10/08 06:03:24;;;;;;;7.28;1.73;;;13.10;99.90;;;;;;5026784;28;25093;-74
2022/10/08 06:05:50;;;;;;;5.45;1.58;;;13.00;99.90;;;;;;5024383;28;25161;-71
2022/10/08 06:08:15;;;;;;;7.07;1.55;;;13.00;99.90;;;;;;5028493;28;25144;-70
2022/10/08 06:10:48;;;;;;;11.93;1.85;;;13.00;99.90;;;;;;5025394;28;25105;-70
2022/10/08 06:13:14;;;;;;;7.93;1.83;;;13.00;99.90;;;;;;5023868;28;25053;-70
2022/10/08 06:15:39;;;;;;;9.65;1.80;;;13.00;99.90;;;;;;5023335;28;25117;-71
2022/10/08 06:18:05;;;;;;;9.13;2.17;;;12.90;99.90;;;;;;5023380;28;25144;-71
2022/10/08 06:20:31;;;;;;;9.55;2.15;;;12.90;99.90;;;;;;5025168;28;25051;-71
2022/10/08 06:22:56;;;;;;;8.02;1.50;;;12.90;99.90;;;;;;5017976;28;25076;-72
2022/10/08 06:25:22;;;;;;;6.43;1.40;;;13.00;99.90;;;;;;5024184;28;25050;-70
2022/10/08 06:27:47;;;;;;;5.88;1.50;;;13.00;99.90;;;;;;5016116;28;25071;-72
2022/10/08 06:30:13;;;;;;;8.02;1.40;;;13.00;99.90;;;;;;5025016;28;25074;-71
2022/10/08 06:32:38;;;;;;;10.30;1.70;;;13.00;99.90;;;;;;5022122;28;25058;-72
2022/10/08 06:35:04;;;;;;;2.83;1.35;;;12.90;99.90;;;;;;5023039;28;25062;-71
2022/10/08 06:37:30;;;;;;;5.65;2.03;;;13.00;99.90;;;;;;5023330;28;25112;-71
2022/10/08 06:39:55;;;;;;;6.93;1.80;;;12.90;99.90;;;;;;5022681;28;25090;-70
2022/10/08 06:42:21;;;;;;;7.65;1.88;;;12.90;99.90;;;;;;5025280;28;25109;-70
2022/10/08 06:44:46;;;;;;;6.15;1.70;;;13.00;99.90;;;;;;5024410;28;25057;-70
2022/10/08 06:47:12;;;;;;;5.50;1.40;;;13.00;99.90;;;;;;5023928;28;25062;-73
2022/10/08 06:49:38;;;;;;;11.32;1.70;;;13.00;99.90;;;;;;5018961;28;25091;-73
2022/10/08 06:52:04;;;;;;;10.82;2.20;;;13.10;99.90;;;;;;5017399;28;25080;-70
2022/10/08 06:54:29;;;;;;;5.03;1.27;;;13.00;99.90;;;;;;5020863;28;25069;-68
2022/10/08 06:56:55;;;;;;;5.35;1.30;;;13.00;99.90;;;;;;5024502;28;25163;-69
2022/10/08 06:59:21;;;;;;;7.00;1.70;;;13.00;99.90;;;;;;5020859;28;25067;-72
2022/10/08 07:01:46;;;;;;;8.13;2.30;;;13.10;99.90;;;;;;5019682;28;25138;-73
2022/10/08 07:04:12;;;;;;;8.95;1.70;;;13.10;99.90;;;;;;5012784;28;25098;-72
2022/10/08 07:06:37;;;;;;;7.30;1.40;;;13.10;99.90;;;;;;5013668;28;25071;-72
2022/10/08 07:09:04;;;;;;;5.57;1.52;;;13.10;99.90;;;;;;5022774;28;25088;-70
2022/10/08 07:11:32;;;;;;;8.38;1.40;;;13.10;99.90;;;;;;5018196;28;25144;-70
2022/10/08 07:13:57;;;;;;;6.60;1.40;;;13.10;99.90;;;;;;5025544;28;25100;-71
2022/10/08 07:16:25;;;;;;;8.75;1.40;;;13.00;99.90;;;;;;5024025;28;25088;-71
2022/10/08 07:18:52;;;;;;;5.18;1.58;;;13.10;99.90;;;;;;5007618;28;25153;-71
2022/10/08 07:21:20;;;;;;;3.38;1.25;;;13.20;99.90;;;;;;5022233;28;25062;-72
2022/10/08 07:23:45;;;;;;;4.75;1.20;;;13.30;99.90;;;;;;5017739;28;25076;-69
2022/10/08 07:26:13;;;;;;;8.23;1.60;;;13.40;99.90;;;;;;5014424;28;25095;-71
2022/10/08 07:28:42;;;;;;;6.93;1.10;;;13.40;99.90;;;;;;5019676;28;25068;-71
2022/10/08 07:31:14;;;;;;;2.60;1.05;;;13.30;99.90;;;;;;5021003;28;25081;-72
2022/10/08 07:33:40;;;;;;;6.03;1.77;;;13.30;99.90;;;;;;5023086;28;25046;-70
2022/10/08 07:36:11;;;;;;;7.05;1.33;;;13.30;99.90;;;;;;5024025;28;25077;-71
2022/10/08 07:38:37;;;;;;;5.97;1.08;;;13.30;99.90;;;;;;5022439;28;25061;-72
2022/10/08 07:41:03;;;;;;;6.55;1.30;;;13.20;99.90;;;;;;5022613;28;25060;-71
2022/10/08 07:43:29;;;;;;;8.00;1.42;;;13.40;99.90;;;;;;5022370;28;25083;-70
2022/10/08 07:45:55;;;;;;;3.55;1.13;;;13.50;99.90;;;;;;5022992;28;25065;-71
2022/10/08 07:48:20;;;;;;;5.25;1.38;;;13.50;99.90;;;;;;5019688;28;25094;-71
2022/10/08 07:50:46;;;;;;;6.20;1.10;;;13.40;99.90;;;;;;5008286;28;25092;-71
2022/10/08 07:53:12;;;;;;;8.90;1.50;;;13.40;99.90;;;;;;5021973;28;25072;-71
2022/10/08 07:55:37;;;;;;;5.53;1.27;;;13.50;99.90;;;;;;5021947;28;25076;-72
2022/10/08 07:58:03;;;;;;;6.93;1.23;;;13.60;99.90;;;;;;5026034;28;25070;-70
2022/10/08 08:00:29;;;;;;;6.90;1.60;;;13.50;99.90;;;;;;5021705;28;25071;-70
2022/10/08 08:02:54;;;;;;;7.85;1.02;;;13.60;99.90;;;;;;5024246;28;25178;-71
2022/10/08 08:05:20;;;;;;;5.65;1.50;;;13.70;99.90;;;;;;5015879;28;25079;-72
2022/10/08 08:07:46;;;;;;;8.98;2.15;;;13.90;99.90;;;;;;5022717;28;25146;-72
2022/10/08 08:10:11;;;;;;;4.30;0.90;;;14.00;99.90;;;;;;5020826;28;25105;-69
2022/10/08 08:12:37;;;;;;;4.35;1.13;;;14.20;99.90;;;;;;5022906;28;25056;-72
2022/10/08 08:15:03;;;;;;;4.05;1.55;;;14.20;99.90;;;;;;5015799;28;25064;-72
2022/10/08 08:17:28;;;;;;;4.22;1.00;;;14.00;99.90;;;;;;5024052;28;25083;-71
2022/10/08 08:19:54;;;;;;;9.10;1.55;;;13.90;99.90;;;;;;5024487;28;25079;-70
2022/10/08 08:22:19;;;;;;;9.13;1.70;;;13.90;99.90;;;;;;5007496;28;25095;-72
2022/10/08 08:24:45;;;;;;;11.20;1.67;;;13.70;99.90;;;;;;5024446;28;25104;-72
2022/10/08 08:27:10;;;;;;;11.82;1.33;;;13.60;99.90;;;;;;5005226;28;25138;-72
2022/10/08 08:29:36;;;;;;;3.47;1.27;;;13.50;99.90;;;;;;5023327;28;25083;-71
2022/10/08 08:32:02;;;;;;;8.50;2.08;;;13.40;99.90;;;;;;5025475;28;25093;-71
2022/10/08 08:34:28;;;;;;;8.30;1.33;;;13.40;99.90;;;;;;5025915;28;25061;-72
2022/10/08 08:36:54;;;;;;;6.30;0.93;;;13.40;99.90;;;;;;5020022;28;25073;-71
2022/10/08 08:39:22;;;;;;;8.23;1.33;;;13.70;99.90;;;;;;5008021;28;25056;-70
2022/10/08 08:42:12;;;;;;;3.92;1.25;;;14.00;99.90;;;;;;5033721;28;25156;-71
2022/10/08 08:44:42;;;;;;;5.93;1.92;;;14.10;99.90;;;;;;5023833;28;25135;-71
2022/10/08 08:47:31;;;;;;;3.63;0.95;;;14.00;99.90;;;;;;5024077;28;25064;-71
2022/10/08 08:50:07;;;;;;;4.03;0.90;;;14.10;99.90;;;;;;5016542;28;25088;-70
2022/10/08 08:52:38;;;;;;;8.07;1.60;;;14.20;99.90;;;;;;5023155;28;25104;-71
2022/10/08 08:55:13;;;;;;;3.88;0.98;;;14.30;99.90;;;;;;5024268;28;25068;-70
2022/10/08 08:57:45;;;;;;;18.67;4.30;;;14.60;99.90;;;;;;5007846;28;25049;-72
2022/10/08 09:00:16;;;;;;;7.07;0.87;;;14.60;99.90;;;;;;5021250;28;25057;-70
2022/10/08 09:02:56;;;;;;;8.38;0.98;;;14.80;99.90;;;;;;5002910;28;25100;-72
2022/10/08 09:05:25;;;;;;;2.55;0.73;;;14.70;99.90;;;;;;5016536;28;25113;-71
2022/10/08 09:08:01;;;;;;;6.25;1.25;;;14.60;99.90;;;;;;5017664;28;25109;-70
2022/10/08 09:10:39;;;;;;;5.32;0.90;;;14.60;99.90;;;;;;5017067;28;25162;-71
2022/10/08 09:13:19;;;;;;;6.93;1.33;;;14.70;99.90;;;;;;5028572;28;25129;-70
2022/10/08 09:15:46;;;;;;;2.40;0.98;;;14.90;99.90;;;;;;5035993;28;25071;-71
2022/10/08 09:18:14;;;;;;;4.15;1.55;;;14.70;99.90;;;;;;5041282;28;25065;-72
2022/10/08 09:20:40;;;;;;;6.00;1.50;;;14.20;99.90;;;;;;5041516;28;25063;-75
2022/10/08 09:23:22;;;;;;;4.30;1.00;;;13.80;99.90;;;;;;5037357;28;25068;-71
2022/10/08 09:26:00;;;;;;;6.13;1.58;;;13.70;99.90;;;;;;5029033;28;25082;-72
2022/10/08 09:28:48;;;;;;;7.57;1.10;;;13.60;99.90;;;;;;5021867;28;25065;-70
2022/10/08 09:31:40;;;;;;;4.90;1.13;;;13.50;99.90;;;;;;5021401;28;25107;-70
2022/10/08 09:34:14;;;;;;;3.65;1.23;;;13.70;99.90;;;;;;5017861;28;25064;-69
2022/10/08 09:36:49;;;;;;;6.88;1.23;;;13.90;99.90;;;;;;5027176;28;25057;-69
2022/10/08 09:39:26;;;;;;;6.30;1.17;;;14.00;99.90;;;;;;5019781;28;25146;-70
2022/10/08 09:42:06;;;;;;;5.40;1.15;;;14.10;99.90;;;;;;5020943;28;25058;-71
2022/10/08 09:45:04;;;;;;;4.63;1.20;;;14.20;99.90;;;;;;5010037;28;25053;-72
2022/10/08 09:47:32;;;;;;;3.72;0.98;;;14.40;99.90;;;;;;5011695;28;25108;-70
2022/10/08 09:50:17;;;;;;;8.65;1.10;;;14.40;99.90;;;;;;5022778;28;25084;-75
2022/10/08 09:52:45;;;;;;;4.82;0.70;;;14.40;99.90;;;;;;5019422;28;25064;-69
2022/10/08 09:55:33;;;;;;;6.63;1.20;;;14.30;99.90;;;;;;5024627;28;25061;-71
2022/10/08 09:58:02;;;;;;;6.13;0.95;;;14.40;99.90;;;;;;5022348;28;25101;-68
2022/10/08 10:00:34;;;;;;;7.45;1.13;;;14.60;99.90;;;;;;5015181;28;25075;-70
2022/10/08 10:03:01;;;;;;;5.85;1.20;;;14.70;99.90;;;;;;5016932;28;25074;-70
2022/10/08 10:05:36;;;;;;;4.65;0.98;;;14.80;99.90;;;;;;5020055;28;25065;-71
2022/10/08 10:08:02;;;;;;;2.08;0.77;;;14.90;99.90;;;;;;5016477;28;25083;-70
2022/10/08 10:10:39;;;;;;;5.30;1.13;;;14.80;99.90;;;;;;5019745;28;25143;-70
2022/10/08 10:13:34;;;;;;;7.00;1.02;;;14.90;99.90;;;;;;5010808;28;25064;-69
2022/10/08 10:16:10;;;;;;;5.95;1.13;;;15.00;99.90;;;;;;5019020;28;25087;-71
2022/10/08 10:19:03;;;;;;;4.60;0.80;;;15.10;99.90;;;;;;5020970;28;25160;-70
2022/10/08 10:21:43;;;;;;;2.83;0.85;;;14.90;99.90;;;;;;5023500;28;25153;-71
2022/10/08 10:24:44;;;;;;;2.03;0.80;;;14.60;99.90;;;;;;5026033;28;25068;-71
2022/10/08 10:27:15;;;;;;;6.15;0.98;;;14.80;99.90;;;;;;5016760;28;25067;-72
2022/10/08 10:30:03;;;;;;;3.10;1.02;;;15.00;99.90;;;;;;5018903;28;25049;-70
2022/10/08 10:32:37;;;;;;;2.47;1.13;;;15.10;99.90;;;;;;5023357;28;25113;-70
2022/10/08 10:35:24;;;;;;;2.80;1.08;;;15.20;99.90;;;;;;5023126;28;25089;-71
2022/10/08 10:38:22;;;;;;;1.10;0.90;;;15.30;99.90;;;;;;5004602;28;25073;-71
2022/10/08 10:41:17;;;;;;;4.35;1.02;;;15.30;99.90;;;;;;4996585;28;25080;-71
2022/10/08 10:43:47;;;;;;;5.78;0.80;;;15.50;99.90;;;;;;5019812;28;25054;-70
2022/10/08 10:46:27;;;;;;;5.93;1.25;;;15.60;99.90;;;;;;5023252;28;25059;-70
2022/10/08 10:48:54;;;;;;;7.38;1.45;;;15.40;99.90;;;;;;5009304;28;25144;-70
2022/10/08 10:51:28;;;;;;;4.72;0.93;;;15.00;99.90;;;;;;5025935;28;25081;-70
2022/10/08 10:54:04;;;;;;;8.02;1.08;;;14.70;99.90;;;;;;5023516;28;25076;-70
2022/10/08 10:56:46;;;;;;;5.00;0.70;;;14.80;99.90;;;;;;5018038;28;25068;-69
2022/10/08 10:59:37;;;;;;;9.73;0.90;;;14.90;99.90;;;;;;5020050;28;25070;-72
2022/10/08 11:02:11;;;;;;;2.45;1.00;;;15.40;99.90;;;;;;4982027;28;25083;-69
2022/10/08 11:04:46;;;;;;;2.63;0.70;;;15.40;99.90;;;;;;5022322;28;25105;-72
2022/10/08 11:07:32;;;;;;;2.30;0.60;;;15.60;99.90;;;;;;5023443;28;25079;-70
2022/10/08 11:10:29;;;;;;;4.40;1.23;;;15.80;99.90;;;;;;5018642;28;25101;-68
2022/10/08 11:13:19;;;;;;;10.90;0.80;;;15.90;99.90;;;;;;5016778;28;25160;-70
2022/10/08 11:15:50;;;;;;;4.30;0.70;;;16.20;99.90;;;;;;5030391;28;25098;-70
2022/10/08 11:18:51;;;;;;;5.22;0.90;;;16.30;99.90;;;;;;5027161;28;25091;-70
2022/10/08 11:21:35;;;;;;;5.07;0.75;;;16.40;99.90;;;;;;5027904;28;25071;-70
2022/10/08 11:24:38;;;;;;;8.63;1.10;;;16.60;99.90;;;;;;5029626;28;25113;-71
2022/10/08 11:27:10;;;;;;;;;;;16.80;99.90;;;;;;5033879;28;25095;-70
2022/10/08 11:29:41;;;;;;;4.65;1.17;;;16.90;99.90;;;;;;5025472;28;25127;-70
2022/10/08 11:32:13;;;;;;;5.20;1.23;;;17.10;99.90;;;;;;5021798;28;25094;-69
2022/10/08 11:34:47;;;;;;;3.38;0.98;;;17.30;99.90;;;;;;5026446;28;25114;-71
2022/10/08 11:37:22;;;;;;;2.33;0.85;;;17.50;99.90;;;;;;5022313;28;25064;-71
2022/10/08 11:39:54;;;;;;;4.78;1.05;;;17.60;99.90;;;;;;5027337;28;25146;-72
2022/10/08 11:42:40;;;;;;;6.82;1.08;;;17.40;99.90;;;;;;5020681;28;25154;-70
2022/10/08 11:45:24;;;;;;;6.60;0.85;;;17.40;99.90;;;;;;5025502;28;25115;-69
2022/10/08 11:47:58;;;;;;;4.18;0.95;;;17.20;99.90;;;;;;5025858;28;25068;-69
2022/10/08 11:50:35;;;;;;;2.90;1.13;;;17.60;99.90;;;;;;5026449;28;25050;-70
2022/10/08 11:53:11;;;;;;;4.53;1.20;;;17.00;99.90;;;;;;5024123;28;25067;-69
2022/10/08 11:55:37;;;;;;;2.05;0.70;;;16.80;99.90;;;;;;5024281;28;25111;-70
2022/10/08 11:58:06;;;;;;;7.13;1.88;;;17.30;99.90;;;;;;5013628;28;25079;-70
2022/10/08 12:00:45;;;;;;;5.43;1.00;;;17.90;99.90;;;;;;5031281;28;25064;-70
2022/10/08 12:03:20;;;;;;;5.50;2.17;;;17.90;99.90;;;;;;5032888;28;25057;-70
2022/10/08 12:05:50;;;;;;;3.20;0.80;;;17.50;99.90;;;;;;5029760;28;25047;-70
2022/10/08 12:08:48;;;;;;;7.63;1.30;;;17.50;99.90;;;;;;5031698;28;25090;-70
2022/10/08 12:11:28;;;;;;;6.82;1.33;;;17.60;99.90;;;;;;5027007;28;25095;-71
2022/10/08 12:14:15;;;;;;;5.10;1.17;;;17.70;99.90;;;;;;5031711;28;25149;-70
2022/10/08 12:16:47;;;;;;;4.05;0.75;;;18.10;99.90;;;;;;5033833;28;25120;-69
2022/10/08 12:19:34;;;;;;;6.67;0.97;;;18.30;99.90;;;;;;5032346;28;25104;-71
2022/10/08 12:22:23;;;;;;;5.30;0.93;;;17.80;99.90;;;;;;5029987;28;25123;-70
2022/10/08 12:24:56;;;;;;;2.35;1.10;;;17.80;99.90;;;;;;5030949;28;25074;-70
2022/10/08 12:27:29;;;;;;;6.15;1.67;;;18.10;99.90;;;;;;5011786;28;25072;-69
2022/10/08 12:29:57;;;;;;;3.75;1.00;;;17.90;99.90;;;;;;5032334;28;25068;-69
2022/10/08 12:32:28;;;;;;;5.60;1.05;;;16.70;99.90;;;;;;5030237;28;25059;-68
2022/10/08 12:34:54;;;;;;;4.72;1.20;;;16.50;99.90;;;;;;5031862;28;25096;-69
2022/10/08 12:37:43;;;;;;;3.42;0.63;;;16.40;99.90;;;;;;5029915;28;25148;-70
2022/10/08 12:40:34;;;;;;;2.58;0.90;;;16.20;99.90;;;;;;5031387;28;25109;-71
2022/10/08 12:43:35;;;;;;;8.38;1.38;;;16.20;99.90;;;;;;5015145;28;25074;-70
2022/10/08 12:46:19;;;;;;;7.38;1.05;;;16.60;99.90;;;;;;5037150;28;25077;-71
2022/10/08 12:48:58;;;;;;;1.75;0.68;;;16.40;99.90;;;;;;5016472;28;25057;-70
2022/10/08 12:51:28;;;;;;;11.90;1.67;;;16.40;99.90;;;;;;5032991;28;25159;-70
2022/10/08 12:53:54;;;;;;;4.13;1.00;;;16.90;99.90;;;;;;5030196;28;25141;-70
2022/10/08 12:56:27;;;;;;;7.63;1.20;;;17.50;99.90;;;;;;5030572;28;25069;-70
2022/10/08 12:58:55;;;;;;;4.00;1.08;;;17.50;99.90;;;;;;5026827;28;25086;-71
2022/10/08 13:01:23;;;;;;;1.33;0.88;;;17.20;99.90;;;;;;5031740;28;25142;-72
2022/10/08 13:04:09;;;;;;;5.93;1.38;;;17.40;99.90;;;;;;5030109;28;25050;-70
2022/10/08 13:06:35;;;;;;;8.35;0.90;;;17.00;99.90;;;;;;5029240;28;25141;-70
2022/10/08 13:09:11;;;;;;;3.88;0.77;;;17.00;99.90;;;;;;5029453;28;25047;-70
2022/10/08 13:11:36;;;;;;;8.18;1.15;;;17.40;99.90;;;;;;5027467;28;25063;-70